Time;durP1;ratioP1;P1;durP2;ratioP2;P2;SDS_P1;SDS_P2;PMS_P1;PMS_P2;Temp;Humidity;BMP_temperature;BMP_pressure;BME280_temperature;BME280_humidity;BME280_pressure;Samples;Min_cycle;Max_cycle;Signal;HPM_P1;HPM_P2
2023/12/14 00:00:10;;;;;;;74.27;32.95;;;;;;;2.52;100.00;99255.23;1722126;80;25840;-61
2023/12/14 00:02:39;;;;;;;77.85;32.33;;;;;;;2.51;100.00;99255.52;1728963;81;25854;-61
2023/12/14 00:05:08;;;;;;;76.40;33.60;;;;;;;2.49;100.00;99261.67;1744678;80;26601;-61
2023/12/14 00:07:34;;;;;;;79.97;34.13;;;;;;;2.49;100.00;99257.67;1736699;80;25868;-61
2023/12/14 00:10:03;;;;;;;71.45;31.73;;;;;;;2.48;100.00;99265.41;1713169;80;28438;-61
2023/12/14 00:12:30;;;;;;;73.50;33.20;;;;;;;2.47;100.00;99260.61;1740609;81;25766;-63
2023/12/14 00:14:57;;;;;;;68.50;32.03;;;;;;;2.43;100.00;99262.23;1751540;80;25784;-59
2023/12/14 00:17:25;;;;;;;71.50;31.82;;;;;;;2.42;100.00;99270.00;1741271;80;26483;-60
2023/12/14 00:19:51;;;;;;;184.18;107.40;;;;;;;2.40;100.00;99270.28;1737923;80;25456;-62
2023/12/14 00:22:18;;;;;;;204.82;110.12;;;;;;;2.40;100.00;99278.28;1739856;80;27280;-64
2023/12/14 00:24:46;;;;;;;99.52;48.20;;;;;;;2.42;100.00;99278.80;1722102;80;25819;-64
2023/12/14 00:27:13;;;;;;;110.17;54.98;;;;;;;2.46;100.00;99279.58;1749282;80;25487;-68
2023/12/14 00:29:39;;;;;;;67.30;33.02;;;;;;;2.48;100.00;99282.75;1742874;80;25872;-74
2023/12/14 00:32:07;;;;;;;69.05;29.67;;;;;;;2.49;100.00;99289.16;1767151;80;25420;-74
2023/12/14 00:34:33;;;;;;;70.37;30.35;;;;;;;2.49;100.00;99286.48;1742585;80;27313;-61
2023/12/14 00:37:00;;;;;;;67.37;29.85;;;;;;;2.50;100.00;99292.06;1756249;80;25727;-61
2023/12/14 00:39:27;;;;;;;70.47;29.63;;;;;;;2.50;100.00;99297.95;1744460;79;25900;-60
2023/12/14 00:41:54;;;;;;;67.95;28.92;;;;;;;2.49;100.00;99296.38;1715598;82;26322;-62
2023/12/14 00:44:21;;;;;;;67.50;29.27;;;;;;;2.46;100.00;99301.72;1689892;82;25876;-61
2023/12/14 00:46:48;;;;;;;64.50;29.40;;;;;;;2.47;100.00;99304.66;1750907;79;27829;-61
2023/12/14 00:49:17;;;;;;;68.85;29.75;;;;;;;2.43;100.00;99308.43;1751772;79;25773;-61
2023/12/14 00:51:44;;;;;;;64.85;27.95;;;;;;;2.43;100.00;99311.61;1714800;81;25812;-61
2023/12/14 00:54:11;;;;;;;66.37;29.37;;;;;;;2.41;100.00;99311.89;1741082;79;25619;-61
2023/12/14 00:56:38;;;;;;;71.45;31.48;;;;;;;2.42;100.00;99311.38;1717428;81;25544;-61
2023/12/14 00:59:05;;;;;;;67.97;29.15;;;;;;;2.40;100.00;99311.64;1725046;81;27917;-61
2023/12/14 01:01:32;;;;;;;64.65;29.90;;;;;;;2.41;100.00;99313.77;1746196;79;25470;-60
2023/12/14 01:03:59;;;;;;;67.87;29.02;;;;;;;2.40;100.00;99316.17;1714617;80;25868;-61
2023/12/14 01:06:27;;;;;;;65.03;28.52;;;;;;;2.39;100.00;99315.37;1717076;80;25987;-61
2023/12/14 01:08:54;;;;;;;66.25;27.45;;;;;;;2.39;100.00;99316.72;1743991;80;25775;-61
2023/12/14 01:11:21;;;;;;;58.48;26.35;;;;;;;2.37;100.00;99314.87;1755724;79;27755;-61
2023/12/14 01:13:48;;;;;;;61.88;27.13;;;;;;;2.33;100.00;99317.81;1724257;80;26427;-61
2023/12/14 01:16:15;;;;;;;61.05;26.48;;;;;;;2.34;100.00;99326.64;1738575;80;25853;-61
2023/12/14 01:18:42;;;;;;;59.83;27.30;;;;;;;2.32;100.00;99326.12;1745955;80;25721;-61
2023/12/14 01:21:09;;;;;;;60.03;27.10;;;;;;;2.30;100.00;99322.91;1746174;80;25821;-61
2023/12/14 01:23:38;;;;;;;59.27;27.10;;;;;;;2.27;100.00;99319.48;1757271;80;27343;-60
2023/12/14 01:26:05;;;;;;;59.08;27.50;;;;;;;2.25;100.00;99326.44;1755118;80;25779;-61
2023/12/14 01:28:33;;;;;;;59.50;24.77;;;;;;;2.21;100.00;99320.86;1741501;80;25800;-61
2023/12/14 01:31:00;;;;;;;54.98;24.25;;;;;;;2.20;100.00;99318.47;1739685;80;26546;-62
2023/12/14 01:33:27;;;;;;;58.28;25.48;;;;;;;2.20;100.00;99315.80;1739756;80;25809;-61
2023/12/14 01:35:55;;;;;;;55.92;25.48;;;;;;;2.18;100.00;99313.91;1736895;80;28022;-61
2023/12/14 01:38:22;;;;;;;59.45;26.37;;;;;;;2.18;100.00;99314.73;1739621;80;25599;-61
2023/12/14 01:40:49;;;;;;;55.88;25.35;;;;;;;2.16;100.00;99310.73;1732419;80;25825;-61
2023/12/14 01:43:15;;;;;;;57.40;25.08;;;;;;;2.16;100.00;99312.07;1736728;80;25825;-60
2023/12/14 01:45:43;;;;;;;53.30;23.65;;;;;;;2.13;100.00;99312.62;1749860;79;25852;-65
2023/12/14 01:48:10;;;;;;;51.90;23.73;;;;;;;2.11;100.00;99308.92;1749690;79;27304;-60
2023/12/14 01:50:37;;;;;;;49.10;24.23;;;;;;;2.10;100.00;99312.64;1741246;81;25757;-60
2023/12/14 01:53:05;;;;;;;52.38;24.35;;;;;;;2.09;100.00;99307.04;1739779;80;25765;-61
2023/12/14 01:55:32;;;;;;;59.15;24.55;;;;;;;2.10;100.00;99311.31;1748754;80;26297;-60
2023/12/14 01:58:00;;;;;;;56.73;25.68;;;;;;;2.11;100.00;99311.59;1746545;80;25725;-60
2023/12/14 02:01:06;;;;;;;54.95;24.70;;;;;;;2.12;100.00;99307.83;1734686;80;27512;-61
2023/12/14 02:03:33;;;;;;;58.45;24.95;;;;;;;2.12;100.00;99305.16;1754772;80;25857;-60
2023/12/14 02:06:00;;;;;;;59.55;24.63;;;;;;;2.14;100.00;99297.67;1730948;81;26151;-60
2023/12/14 02:08:29;;;;;;;58.63;24.65;;;;;;;2.13;100.00;99304.09;1748505;79;26363;-60
2023/12/14 02:10:56;;;;;;;50.03;23.00;;;;;;;2.13;100.00;99295.27;1746273;80;25854;-61
2023/12/14 02:13:25;;;;;;;54.30;24.30;;;;;;;2.13;100.00;99297.94;1747323;79;28191;-61
2023/12/14 02:15:53;;;;;;;55.03;25.00;;;;;;;2.12;100.00;99305.16;1757392;79;25830;-60
2023/12/14 02:18:21;;;;;;;54.00;23.35;;;;;;;2.13;100.00;99301.95;1750310;79;25382;-60
2023/12/14 02:20:48;;;;;;;52.45;24.02;;;;;;;2.12;100.00;99302.48;1742106;80;25468;-61
2023/12/14 02:23:15;;;;;;;56.00;24.45;;;;;;;2.12;100.00;99295.82;1751694;80;25442;-60
2023/12/14 02:25:43;;;;;;;54.38;23.40;;;;;;;2.11;100.00;99296.91;1746705;80;27521;-60
2023/12/14 02:28:11;;;;;;;53.68;23.40;;;;;;;2.12;100.00;99297.70;1762798;79;25496;-60
2023/12/14 02:30:37;;;;;;;63.35;24.20;;;;;;;2.10;100.00;99295.30;1754913;80;25823;-60
2023/12/14 02:33:04;;;;;;;60.00;24.65;;;;;;;2.10;100.00;99295.30;1728644;81;26377;-61
2023/12/14 02:35:31;;;;;;;54.20;24.05;;;;;;;2.12;100.00;99288.36;1717061;82;25834;-61
2023/12/14 02:37:58;;;;;;;57.90;24.35;;;;;;;2.11;100.00;99289.42;1725798;81;27642;-62
2023/12/14 02:40:25;;;;;;;53.17;22.35;;;;;;;2.09;100.00;99292.37;1740660;81;25783;-63
2023/12/14 02:42:51;;;;;;;59.42;23.50;;;;;;;2.09;100.00;99287.58;1762725;79;25431;-61
2023/12/14 02:45:18;;;;;;;54.40;23.27;;;;;;;2.10;100.00;99290.52;1750253;80;25613;-60
2023/12/14 02:47:48;;;;;;;50.98;22.48;;;;;;;2.09;100.00;99291.58;1762260;79;25874;-60
2023/12/14 02:50:16;;;;;;;55.67;25.15;;;;;;;2.07;100.00;99289.19;1761736;80;27325;-60
2023/12/14 02:52:43;;;;;;;58.42;23.70;;;;;;;2.07;100.00;99286.52;1753832;80;25786;-61
2023/12/14 02:55:10;;;;;;;56.45;23.75;;;;;;;2.08;100.00;99288.12;1769775;79;25803;-60
2023/12/14 02:57:37;;;;;;;57.27;24.10;;;;;;;2.07;100.00;99287.85;1753778;80;25972;-60
2023/12/14 03:00:06;;;;;;;60.92;23.25;;;;;;;2.09;100.00;99295.58;1763700;79;25418;-61
2023/12/14 03:02:33;;;;;;;59.95;24.15;;;;;;;2.08;100.00;99297.45;1730063;80;28035;-61
2023/12/14 03:05:00;;;;;;;62.33;26.15;;;;;;;2.09;100.00;99299.03;1759825;80;25984;-61
2023/12/14 03:07:27;;;;;;;65.65;24.37;;;;;;;2.10;100.00;99296.64;1748230;79;25459;-61
2023/12/14 03:09:55;;;;;;;59.50;25.23;;;;;;;2.11;100.00;99298.25;1757084;79;26643;-61
2023/12/14 03:12:22;;;;;;;60.12;23.73;;;;;;;2.11;100.00;99294.25;1751137;79;26062;-61
2023/12/14 03:14:48;;;;;;;68.90;24.92;;;;;;;2.11;100.00;99301.43;1749357;80;27846;-62
2023/12/14 03:17:17;;;;;;;70.97;25.97;;;;;;;2.12;100.00;99303.83;1726985;80;26050;-60
2023/12/14 03:19:44;;;;;;;73.45;27.20;;;;;;;2.12;100.00;99311.04;1738303;80;25816;-60
2023/12/14 03:22:11;;;;;;;61.42;24.82;;;;;;;2.12;100.00;99313.16;1746979;80;25676;-60
2023/12/14 03:24:38;;;;;;;62.50;23.92;;;;;;;2.11;100.00;99316.10;1754586;80;25774;-62
2023/12/14 03:27:05;;;;;;;64.53;25.00;;;;;;;2.11;100.00;99316.92;1743712;80;28033;-62
2023/12/14 03:29:33;;;;;;;58.10;22.45;;;;;;;2.11;100.00;99311.59;1746714;80;25774;-62
2023/12/14 03:32:00;;;;;;;59.10;23.62;;;;;;;2.10;100.00;99313.98;1760913;79;25422;-62
2023/12/14 03:34:27;;;;;;;62.03;23.87;;;;;;;2.11;100.00;99320.11;1745493;80;25870;-62
2023/12/14 03:36:55;;;;;;;60.15;23.07;;;;;;;2.11;100.00;99319.59;1754636;80;25561;-62
2023/12/14 03:39:21;;;;;;;57.00;22.75;;;;;;;2.11;100.00;99322.26;1744304;80;28037;-62
2023/12/14 03:41:49;;;;;;;59.85;22.80;;;;;;;2.11;100.00;99329.44;1745766;80;26020;-62
2023/12/14 03:44:16;;;;;;;62.10;22.65;;;;;;;2.10;100.00;99331.87;1752832;80;25666;-62
2023/12/14 03:46:44;;;;;;;56.30;23.15;;;;;;;2.09;100.00;99334.27;1753415;80;25837;-62
2023/12/14 03:49:12;;;;;;;51.35;20.75;;;;;;;2.07;100.00;99329.20;1746462;80;25861;-62
2023/12/14 03:51:41;;;;;;;51.23;21.80;;;;;;;2.04;100.00;99337.23;1738337;80;28026;-62
2023/12/14 03:54:07;;;;;;;54.23;21.80;;;;;;;2.04;100.00;99338.56;1752753;80;25860;-62
2023/12/14 03:56:34;;;;;;;54.27;22.00;;;;;;;2.05;100.00;99345.48;1752242;80;25196;-62
2023/12/14 03:59:02;;;;;;;56.00;22.30;;;;;;;2.05;100.00;99337.48;1749739;80;26288;-62
2023/12/14 04:01:30;;;;;;;54.80;20.95;;;;;;;2.04;100.00;99343.08;1749426;80;25510;-61
2023/12/14 04:03:58;;;;;;;58.83;23.10;;;;;;;2.04;100.00;99344.41;1761979;79;27314;-61
2023/12/14 04:06:27;;;;;;;54.98;21.90;;;;;;;2.04;100.00;99345.75;1753737;80;25968;-61
2023/12/14 04:08:56;;;;;;;52.62;20.77;;;;;;;2.03;100.00;99343.63;1763276;80;25816;-61
2023/12/14 04:11:24;;;;;;;52.38;21.00;;;;;;;2.02;100.00;99355.36;1724871;80;26288;-62
2023/12/14 04:13:53;;;;;;;60.58;21.97;;;;;;;2.02;100.00;99355.91;1755189;79;25782;-61
2023/12/14 04:16:22;;;;;;;56.50;22.48;;;;;;;2.00;100.00;99358.05;1750101;80;28208;-61
2023/12/14 04:18:50;;;;;;;56.33;22.20;;;;;;;2.00;100.00;99363.39;1762502;79;25934;-62
2023/12/14 04:21:19;;;;;;;53.60;21.93;;;;;;;1.99;100.00;99357.27;1746928;80;25779;-61
2023/12/14 04:23:48;;;;;;;61.02;22.35;;;;;;;1.97;100.00;99359.38;1756640;79;26204;-59
2023/12/14 04:26:16;;;;;;;55.95;21.50;;;;;;;1.96;100.00;99362.33;1767021;80;25763;-59
2023/12/14 04:28:45;;;;;;;53.23;22.65;;;;;;;1.96;100.00;99359.14;1763605;79;28051;-62
2023/12/14 04:31:13;;;;;;;59.83;21.65;;;;;;;1.95;100.00;99358.87;1744122;80;25733;-60
2023/12/14 04:33:43;;;;;;;56.73;21.65;;;;;;;1.96;100.00;99363.66;1757531;80;25834;-59
2023/12/14 04:36:11;;;;;;;57.53;21.05;;;;;;;1.97;100.00;99366.05;1748989;80;25780;-60
2023/12/14 04:38:37;;;;;;;57.60;22.25;;;;;;;1.97;100.00;99363.93;1756181;80;25476;-60
2023/12/14 04:41:04;;;;;;;55.48;21.62;;;;;;;1.96;100.00;99364.99;1741224;80;27386;-61
2023/12/14 04:43:33;;;;;;;52.23;22.55;;;;;;;1.97;100.00;99374.59;1757868;80;25480;-61
2023/12/14 04:46:01;;;;;;;56.68;21.27;;;;;;;1.97;100.00;99378.06;1753097;80;25582;-61
2023/12/14 04:48:29;;;;;;;57.90;20.63;;;;;;;1.97;100.00;99378.60;1753077;79;26791;-61
2023/12/14 04:50:56;;;;;;;52.50;19.90;;;;;;;1.95;100.00;99384.75;1721140;81;25425;-61
2023/12/14 04:53:23;;;;;;;61.53;23.38;;;;;;;1.95;100.00;99382.09;1759240;80;27295;-61
2023/12/14 04:55:49;;;;;;;56.58;21.73;;;;;;;1.92;100.00;99388.75;1765331;80;25480;-61
2023/12/14 04:58:18;;;;;;;50.35;20.00;;;;;;;1.91;100.00;99388.50;1755796;80;25866;-62
2023/12/14 05:00:47;;;;;;;55.33;21.60;;;;;;;1.92;100.00;99396.75;1752540;80;26698;-61
2023/12/14 05:03:15;;;;;;;60.10;21.37;;;;;;;1.92;100.00;99393.30;1759888;79;25445;-60
2023/12/14 05:05:43;;;;;;;53.98;20.62;;;;;;;1.91;100.00;99396.51;1742244;80;28260;-62
2023/12/14 05:08:12;;;;;;;58.23;20.60;;;;;;;1.90;100.00;99394.11;1738518;80;25756;-60
2023/12/14 05:10:40;;;;;;;55.98;21.52;;;;;;;1.91;100.00;99401.84;1748754;80;25469;-61
2023/12/14 05:13:08;;;;;;;56.60;21.65;;;;;;;2.01;100.00;99427.65;1752924;79;26617;-61
2023/12/14 05:15:37;;;;;;;53.42;21.40;;;;;;;1.92;100.00;99408.75;1754808;80;25811;-62
2023/12/14 05:18:05;;;;;;;50.75;20.32;;;;;;;1.93;100.00;99420.23;1764118;80;28334;-62
2023/12/14 05:20:32;;;;;;;57.03;20.62;;;;;;;1.93;100.00;99423.70;1757615;79;25825;-61
2023/12/14 05:23:00;;;;;;;54.33;22.27;;;;;;;1.93;100.00;99427.70;1751732;80;25752;-61
2023/12/14 05:25:27;;;;;;;55.58;21.45;;;;;;;1.93;100.00;99425.03;1762336;79;26812;-63
2023/12/14 05:27:55;;;;;;;62.53;23.98;;;;;;;1.94;100.00;99434.64;1721873;80;25848;-61
2023/12/14 05:30:23;;;;;;;57.43;21.97;;;;;;;1.92;100.00;99434.63;1746785;79;27488;-62
2023/12/14 05:32:50;;;;;;;54.93;22.37;;;;;;;1.92;100.00;99438.09;1728656;80;25438;-61
2023/12/14 05:35:17;;;;;;;60.67;23.40;;;;;;;1.94;100.00;99451.16;1730671;81;25745;-61
2023/12/14 05:37:45;;;;;;;59.03;21.57;;;;;;;1.94;100.00;99447.97;1725267;81;26650;-62
2023/12/14 05:40:15;;;;;;;60.98;22.30;;;;;;;1.95;100.00;99457.55;1755919;79;25858;-62
2023/12/14 05:42:42;;;;;;;66.27;23.07;;;;;;;1.96;100.00;99463.68;1721369;80;28296;-61
2023/12/14 05:45:11;;;;;;;60.50;22.07;;;;;;;1.97;100.00;99464.75;1747507;80;26009;-60
2023/12/14 05:47:41;;;;;;;57.23;22.10;;;;;;;1.96;100.00;99461.02;1748200;79;25467;-62
2023/12/14 05:50:09;;;;;;;58.87;21.90;;;;;;;1.98;100.00;99473.56;1744092;80;25750;-62
2023/12/14 05:52:37;;;;;;;52.78;21.60;;;;;;;1.98;100.00;99466.90;1742572;81;25877;-61
2023/12/14 05:55:08;;;;;;;53.78;22.05;;;;;;;1.99;100.00;99470.62;1758602;79;27298;-60
2023/12/14 05:57:36;;;;;;;49.30;20.68;;;;;;;1.99;100.00;99472.48;1762125;79;25455;-61
2023/12/14 06:00:07;;;;;;;57.55;22.40;;;;;;;2.01;100.00;99479.66;1768351;79;25811;-61
2023/12/14 06:02:36;;;;;;;54.15;20.52;;;;;;;1.99;100.00;99483.97;1742609;80;26306;-62
2023/12/14 06:05:05;;;;;;;;;;;;;;;2.01;100.00;99487.16;1742243;80;25774;-60
2023/12/14 06:07:33;;;;;;;51.55;20.48;;;;;;;2.01;100.00;99497.00;1732576;81;27373;-60
2023/12/14 06:10:01;;;;;;;61.35;21.90;;;;;;;1.98;100.00;99500.23;1753457;80;25737;-60
2023/12/14 06:12:29;;;;;;;48.52;21.27;;;;;;;1.96;100.00;99507.17;1746980;80;25453;-61
2023/12/14 06:14:55;;;;;;;54.77;21.40;;;;;;;1.95;100.00;99508.78;1752885;79;25811;-61
2023/12/14 06:17:23;;;;;;;54.20;21.52;;;;;;;1.92;100.00;99515.98;1745683;80;25939;-61
2023/12/14 06:19:51;;;;;;;54.77;21.05;;;;;;;1.92;100.00;99511.98;1762297;80;27510;-62
2023/12/14 06:22:19;;;;;;;58.83;21.95;;;;;;;1.90;100.00;99516.25;1752907;80;25852;-62
2023/12/14 06:24:47;;;;;;;48.20;20.57;;;;;;;1.96;100.00;99532.52;1727651;80;25846;-65
2023/12/14 06:27:15;;;;;;;53.38;20.30;;;;;;;1.96;100.00;99532.52;1744757;80;25512;-63
2023/12/14 06:29:42;;;;;;;49.95;19.67;;;;;;;1.91;100.00;99523.19;1740340;80;25780;-63
2023/12/14 06:32:09;;;;;;;45.92;19.57;;;;;;;1.90;100.00;99526.13;1752244;80;27649;-63
2023/12/14 06:34:37;;;;;;;48.45;19.15;;;;;;;1.91;100.00;99531.19;1745183;80;25799;-64
2023/12/14 06:37:05;;;;;;;46.65;18.57;;;;;;;1.91;100.00;99537.86;1755104;80;25763;-62
2023/12/14 06:39:34;;;;;;;;;;;;;;;1.90;100.00;99538.13;1757297;80;25851;-63
2023/12/14 06:42:02;;;;;;;40.98;17.80;;;;;;;1.89;100.00;99541.34;1754615;79;25789;-63
2023/12/14 06:44:30;;;;;;;50.63;19.98;;;;;;;1.85;100.00;99543.72;1750477;80;27312;-63
2023/12/14 06:46:58;;;;;;;45.60;19.00;;;;;;;1.84;100.00;99542.68;1748715;80;25486;-63
2023/12/14 06:49:26;;;;;;;44.13;18.95;;;;;;;1.87;100.00;99544.78;1753482;80;25828;-63
2023/12/14 06:51:56;;;;;;;50.33;20.15;;;;;;;1.88;100.00;99553.61;1759169;80;34888;-63
2023/12/14 06:54:24;;;;;;;46.65;19.75;;;;;;;1.87;100.00;99551.45;1750078;80;25391;-63
2023/12/14 06:56:50;;;;;;;49.08;20.08;;;;;;;1.87;100.00;99555.45;1745109;79;27306;-63
2023/12/14 06:59:19;;;;;;;45.60;19.95;;;;;;;1.84;100.00;99564.80;1749160;79;25803;-63
2023/12/14 07:01:47;;;;;;;48.65;19.85;;;;;;;1.85;100.00;99558.92;1742848;80;25390;-64
2023/12/14 07:04:15;;;;;;;49.23;19.98;;;;;;;1.87;100.00;99566.12;1750327;80;26267;-64
2023/12/14 07:06:53;;;;;;;46.35;19.40;;;;;;;1.85;100.00;99563.72;1751228;79;25858;-64
2023/12/14 07:09:22;;;;;;;45.52;20.02;;;;;;;1.84;100.00;99564.02;1761592;79;28449;-64
2023/12/14 07:11:49;;;;;;;47.17;19.77;;;;;;;1.85;100.00;99568.26;1756233;79;25818;-64
2023/12/14 07:14:16;;;;;;;44.98;19.40;;;;;;;1.83;100.00;99559.73;1753609;80;25424;-68
2023/12/14 07:16:45;;;;;;;45.43;19.55;;;;;;;1.84;100.00;99570.14;1771502;79;26297;-65
2023/12/14 07:19:12;;;;;;;44.53;19.50;;;;;;;1.84;100.00;99572.02;1768336;79;25891;-64
2023/12/14 07:21:39;;;;;;;46.83;20.55;;;;;;;1.84;100.00;99570.14;1759174;80;28039;-64
2023/12/14 07:24:08;;;;;;;46.88;18.60;;;;;;;1.85;100.00;99572.27;1727618;80;26064;-65
2023/12/14 07:26:36;;;;;;;51.00;22.87;;;;;;;1.85;100.00;99577.59;1762177;78;25781;-64
2023/12/14 07:29:03;;;;;;;52.33;22.30;;;;;;;1.86;100.00;99576.00;1764369;79;26294;-64
2023/12/14 07:31:29;;;;;;;52.17;22.45;;;;;;;1.87;100.00;99574.12;1755930;79;26402;-64
2023/12/14 07:33:58;;;;;;;50.25;21.48;;;;;;;1.88;100.00;99577.06;1760661;79;27628;-63
2023/12/14 07:36:25;;;;;;;44.67;20.70;;;;;;;1.88;100.00;99575.73;1770030;79;25799;-64
2023/12/14 07:38:52;;;;;;;45.55;19.25;;;;;;;1.88;100.00;99581.61;1760464;79;25391;-64
2023/12/14 07:41:26;;;;;;;52.30;21.20;;;;;;;1.88;100.00;99572.27;1761573;79;26656;-64
2023/12/14 07:43:50;;;;;;;49.03;19.65;;;;;;;1.91;100.00;99577.05;1746196;80;25846;-64
2023/12/14 07:46:17;;;;;;;46.95;20.02;;;;;;;1.93;100.00;99581.06;1758527;80;27301;-63
2023/12/14 07:48:44;;;;;;;43.15;19.25;;;;;;;1.94;100.00;99584.52;1753417;79;25460;-63
2023/12/14 07:51:11;;;;;;;49.35;20.20;;;;;;;1.95;100.00;99580.80;1743190;80;25793;-63
2023/12/14 07:53:41;;;;;;;42.10;20.02;;;;;;;1.96;100.00;99583.70;1752730;80;26480;-63
2023/12/14 07:56:08;;;;;;;59.33;22.77;;;;;;;1.96;100.00;99583.19;1749078;80;25863;-63
2023/12/14 07:58:36;;;;;;;67.05;27.98;;;;;;;1.96;100.00;99581.86;1740297;80;28050;-63
2023/12/14 08:01:05;;;;;;;82.42;35.08;;;;;;;1.98;100.00;99583.72;1742723;80;25824;-63
2023/12/14 08:03:33;;;;;;;93.50;38.25;;;;;;;1.99;100.00;99589.33;1756613;80;25872;-63
2023/12/14 08:06:01;;;;;;;101.27;39.80;;;;;;;2.00;100.00;99594.91;1744950;80;25828;-63
2023/12/14 08:08:29;;;;;;;99.55;38.88;;;;;;;1.98;100.00;99599.72;1746953;79;25469;-63
2023/12/14 08:10:57;;;;;;;113.75;46.20;;;;;;;2.02;100.00;99613.32;1750604;80;28064;-63
2023/12/14 08:13:27;;;;;;;;;;;;;;;2.03;100.00;99616.27;1746448;80;25883;-63
2023/12/14 08:15:55;;;;;;;108.30;47.38;;;;;;;2.04;100.00;99622.67;1768556;79;25421;-64
2023/12/14 08:18:23;;;;;;;97.15;42.33;;;;;;;2.08;100.00;99630.11;1726941;80;25970;-65
2023/12/14 08:20:55;;;;;;;74.05;35.03;;;;;;;2.11;100.00;99630.41;1751574;80;25763;-65
2023/12/14 08:23:21;;;;;;;63.05;26.23;;;;;;;2.12;100.00;99631.19;1753776;80;27304;-65
2023/12/14 08:25:48;;;;;;;58.52;25.52;;;;;;;2.16;100.00;99634.40;1721803;81;25489;-64
2023/12/14 08:28:16;;;;;;;60.40;25.48;;;;;;;2.19;100.00;99634.38;1744186;80;25888;-64
2023/12/14 08:30:44;;;;;;;51.70;24.82;;;;;;;2.23;100.00;99635.43;1722946;80;26661;-65
2023/12/14 08:33:13;;;;;;;53.73;25.27;;;;;;;2.28;100.00;99646.09;1749853;79;25489;-65
2023/12/14 08:35:42;;;;;;;50.52;23.05;;;;;;;2.31;100.00;99652.23;1749369;80;28266;-65
2023/12/14 08:38:10;;;;;;;50.52;21.20;;;;;;;2.33;100.00;99651.97;1752696;79;25692;-64
2023/12/14 08:40:40;;;;;;;38.83;16.05;;;;;;;2.35;100.00;99661.83;1740794;80;25402;-64
2023/12/14 08:43:06;;;;;;;35.40;15.40;;;;;;;2.34;100.00;99661.59;1723772;81;25594;-64
2023/12/14 08:45:36;;;;;;;39.23;15.63;;;;;;;2.33;100.00;99659.43;1743638;79;25777;-64
2023/12/14 08:48:05;;;;;;;33.18;16.35;;;;;;;2.36;100.00;99666.91;1723754;80;27382;-65
2023/12/14 08:50:32;;;;;;;40.98;17.17;;;;;;;2.34;100.00;99667.72;1752561;80;25454;-74
2023/12/14 08:52:59;;;;;;;37.60;16.17;;;;;;;2.36;100.00;99674.91;1769138;79;25782;-74
2023/12/14 08:55:28;;;;;;;42.70;18.67;;;;;;;2.38;100.00;99679.47;1760609;80;25816;-77
2023/12/14 08:57:55;;;;;;;47.35;22.17;;;;;;;2.39;100.00;99685.59;1752386;79;33069;-74
2023/12/14 09:00:23;;;;;;;49.10;22.55;;;;;;;2.40;100.00;99689.34;1746747;80;27539;-73
2023/12/14 09:02:51;;;;;;;48.75;22.10;;;;;;;2.38;100.00;99691.48;1765881;79;25530;-74
2023/12/14 09:05:20;;;;;;;51.80;22.42;;;;;;;2.37;100.00;99687.20;1754457;80;25794;-75
2023/12/14 09:07:48;;;;;;;52.53;22.82;;;;;;;2.38;100.00;99697.33;1742857;80;25705;-72
2023/12/14 09:10:15;;;;;;;44.40;22.75;;;;;;;2.39;100.00;99701.07;1757224;80;25450;-74
2023/12/14 09:12:41;;;;;;;50.98;23.27;;;;;;;2.42;100.00;99701.08;1724297;81;27303;-77
2023/12/14 09:15:10;;;;;;;51.05;23.65;;;;;;;2.41;100.00;99704.27;1732637;81;25476;-77
2023/12/14 09:17:37;;;;;;;49.40;23.10;;;;;;;2.43;100.00;99696.81;1741466;81;25866;-77
2023/12/14 09:20:07;;;;;;;45.25;21.25;;;;;;;2.46;100.00;99692.79;1730225;81;25593;-77
2023/12/14 09:22:33;;;;;;;49.05;23.60;;;;;;;2.51;100.00;99703.46;1740675;81;25416;-74
2023/12/14 09:25:00;;;;;;;53.50;22.95;;;;;;;2.54;100.00;99703.47;1718369;81;28033;-76
2023/12/14 09:27:27;;;;;;;54.48;25.17;;;;;;;2.56;100.00;99704.79;1730256;81;25787;-75
2023/12/14 09:29:53;;;;;;;47.25;23.07;;;;;;;2.59;100.00;99708.80;1722135;81;25424;-76
2023/12/14 09:32:20;;;;;;;47.95;21.87;;;;;;;2.60;100.00;99717.06;1729324;82;26226;-75
2023/12/14 09:34:47;;;;;;;58.28;24.05;;;;;;;2.61;100.00;99714.13;1738397;81;25846;-74
2023/12/14 09:37:14;;;;;;;50.88;23.45;;;;;;;2.61;100.00;99710.12;1695844;82;27321;-75
2023/12/14 09:39:40;;;;;;;54.75;22.50;;;;;;;2.63;100.00;99717.07;1737540;81;25845;-75
2023/12/14 09:42:09;;;;;;;51.70;22.37;;;;;;;2.60;100.00;99715.73;1706277;81;25899;-75
2023/12/14 09:44:37;;;;;;;50.73;22.58;;;;;;;2.56;100.00;99711.46;1726195;81;25585;-76
2023/12/14 09:47:06;;;;;;;45.63;21.17;;;;;;;2.55;100.00;99709.84;1762953;79;25990;-76
2023/12/14 09:49:36;;;;;;;49.63;20.72;;;;;;;2.59;100.00;99714.94;1760800;80;28132;-77
2023/12/14 09:52:04;;;;;;;47.25;22.65;;;;;;;2.63;100.00;99711.73;1747382;79;25827;-75
2023/12/14 09:54:31;;;;;;;46.80;21.57;;;;;;;2.67;100.00;99711.44;1741838;80;25614;-73
2023/12/14 09:56:58;;;;;;;46.63;22.65;;;;;;;2.66;100.00;99712.53;1766746;79;26593;-74
2023/12/14 09:59:24;;;;;;;43.38;19.95;;;;;;;2.72;100.00;99720.78;1749853;79;25398;-73
2023/12/14 10:01:53;;;;;;;36.90;18.48;;;;;;;2.73;100.00;99719.17;1757353;80;27370;-76
2023/12/14 10:04:23;;;;;;;41.77;18.82;;;;;;;2.77;100.00;99716.76;1750371;79;25785;-74
2023/12/14 10:06:50;;;;;;;36.33;17.60;;;;;;;2.76;100.00;99713.84;1753870;79;25747;-81
2023/12/14 10:09:22;;;;;;;34.18;17.00;;;;;;;2.77;100.00;99716.22;1758976;79;25680;-75
2023/12/14 10:11:56;;;;;;;32.45;17.98;;;;;;;2.76;100.00;99714.63;1742548;80;25517;-75
2023/12/14 10:14:26;;;;;;;32.40;16.60;;;;;;;2.77;100.00;99712.75;1758512;79;27560;-75
2023/12/14 10:16:54;;;;;;;33.50;17.70;;;;;;;2.79;100.00;99722.62;1756133;79;25958;-75
2023/12/14 10:19:21;;;;;;;34.05;16.85;;;;;;;2.77;100.00;99720.77;1752259;80;25910;-73
2023/12/14 10:21:51;;;;;;;30.52;15.78;;;;;;;2.80;100.00;99719.69;1725664;81;25770;-74
2023/12/14 10:24:20;;;;;;;29.35;16.50;;;;;;;2.78;100.00;99714.37;1733631;81;25469;-77
2023/12/14 10:26:51;;;;;;;28.35;16.45;;;;;;;2.84;100.00;99729.29;1723889;81;27340;-75
2023/12/14 10:29:17;;;;;;;31.00;16.52;;;;;;;2.84;100.00;99723.95;1692253;81;25850;-79
2023/12/14 10:31:48;;;;;;;31.40;16.20;;;;;;;2.86;100.00;99735.19;1725076;82;25827;-76
2023/12/14 10:34:15;;;;;;;31.42;16.57;;;;;;;2.83;100.00;99726.37;1721639;81;25599;-77
2023/12/14 10:36:45;;;;;;;31.17;16.55;;;;;;;2.85;100.00;99726.89;1726397;81;25783;-76
2023/12/14 10:39:15;;;;;;;31.15;15.13;;;;;;;2.85;100.00;99738.12;1760159;79;28035;-72
2023/12/14 10:41:51;;;;;;;28.17;16.10;;;;;;;2.84;100.00;99733.30;1757481;80;25447;-72
2023/12/14 10:44:20;;;;;;;34.60;18.20;;;;;;;2.85;100.00;99738.12;1748901;79;25856;-71
2023/12/14 10:46:50;;;;;;;36.20;18.17;;;;;;;2.84;100.00;99745.31;1767400;79;26484;-74
2023/12/14 10:49:18;;;;;;;30.17;16.67;;;;;;;2.79;100.00;99739.47;1770251;79;25830;-71
2023/12/14 10:51:47;;;;;;;32.67;17.52;;;;;;;2.77;100.00;99740.25;1758393;79;28100;-73
2023/12/14 10:54:16;;;;;;;32.15;16.77;;;;;;;2.78;100.00;99751.22;1766172;79;25500;-75
2023/12/14 10:56:43;;;;;;;26.15;16.65;;;;;;;2.76;100.00;99753.91;1768812;79;25791;-74
2023/12/14 10:59:09;;;;;;;28.20;16.32;;;;;;;2.76;100.00;99757.37;1754192;80;25769;-73
2023/12/14 11:01:39;;;;;;;27.42;16.27;;;;;;;2.76;100.00;99756.58;1761221;79;25457;-70
2023/12/14 11:04:13;;;;;;;26.30;15.38;;;;;;;2.76;100.00;99756.58;1764607;79;27320;-73
2023/12/14 11:06:42;;;;;;;27.70;15.28;;;;;;;2.75;100.00;99761.64;1743324;80;25402;-69
2023/12/14 11:09:13;;;;;;;25.90;14.90;;;;;;;2.72;100.00;99770.19;1750227;80;25498;-73
2023/12/14 11:11:59;;;;;;;28.38;15.63;;;;;;;2.70;100.00;99768.33;1748432;80;25908;-74
2023/12/14 11:14:28;;;;;;;26.68;14.90;;;;;;;2.65;100.00;99771.00;1753701;80;26250;-73
2023/12/14 11:16:58;;;;;;;29.60;15.68;;;;;;;2.63;100.00;99772.60;1752436;79;27331;-74
2023/12/14 11:19:28;;;;;;;23.80;13.95;;;;;;;2.62;100.00;99776.33;1727289;81;25896;-73